createdAt,value
2023-08-16T00:01:40.963Z,19.39
2023-08-16T00:06:47.292Z,19.39
2023-08-16T00:11:51.426Z,19.39
2023-08-16T00:16:55.613Z,19.37
2023-08-16T00:22:01.163Z,19.36
2023-08-16T00:27:05.959Z,19.30
2023-08-16T00:32:12.181Z,19.25
2023-08-16T00:37:17.503Z,19.19
2023-08-16T00:42:21.476Z,19.13
2023-08-16T00:47:25.899Z,19.01
2023-08-16T00:52:32.764Z,19.08
2023-08-16T00:57:36.970Z,19.03
2023-08-16T01:02:41.338Z,18.99
2023-08-16T01:07:48.543Z,18.98
2023-08-16T01:12:58.440Z,18.96
2023-08-16T01:18:03.201Z,18.96
2023-08-16T01:23:11.358Z,18.88
2023-08-16T01:28:17.047Z,18.88
2023-08-16T01:33:21.510Z,18.85
2023-08-16T01:38:26.750Z,18.80
2023-08-16T01:43:33.992Z,18.79
2023-08-16T01:48:39.087Z,18.76
2023-08-16T01:53:43.490Z,18.69
2023-08-16T01:58:49.202Z,18.61
2023-08-16T02:03:54.991Z,18.64
2023-08-16T02:08:59.311Z,18.58
2023-08-16T02:14:04.841Z,18.49
2023-08-16T02:19:09.889Z,18.50
2023-08-16T02:24:15.405Z,18.49
2023-08-16T02:29:20.652Z,18.51
2023-08-16T02:34:25.172Z,18.43
2023-08-16T02:39:29.085Z,18.39
2023-08-16T02:44:34.356Z,18.31
2023-08-16T02:49:38.511Z,18.35
2023-08-16T02:54:43.422Z,18.36
2023-08-16T02:59:48.743Z,18.37
2023-08-16T03:04:55.579Z,18.38
2023-08-16T03:09:59.562Z,18.38
2023-08-16T03:15:07.386Z,18.39
2023-08-16T03:20:11.679Z,18.34
2023-08-16T03:25:16.418Z,18.34
2023-08-16T03:30:21.773Z,18.26
2023-08-16T03:35:26.684Z,18.23
2023-08-16T03:40:30.989Z,18.17
2023-08-16T03:45:38.022Z,18.12
2023-08-16T03:50:42.360Z,18.14
2023-08-16T03:55:46.677Z,18.19
2023-08-16T04:00:52.300Z,18.11
2023-08-16T04:05:56.626Z,18.17
2023-08-16T04:11:00.972Z,18.24
2023-08-16T04:16:06.563Z,18.32
2023-08-16T04:21:11.084Z,18.43
2023-08-16T04:26:15.146Z,18.55
2023-08-16T04:31:20.764Z,18.70
2023-08-16T04:36:25.834Z,18.84
2023-08-16T04:41:29.779Z,18.98
2023-08-16T04:46:36.235Z,19.11
2023-08-16T04:51:40.353Z,19.25
2023-08-16T04:56:45.172Z,19.38
2023-08-16T05:01:51.365Z,19.56
2023-08-16T05:06:55.944Z,19.70
2023-08-16T05:11:59.929Z,19.86
2023-08-16T05:17:05.799Z,20.04
2023-08-16T05:22:10.072Z,20.23
2023-08-16T05:27:14.214Z,20.43
2023-08-16T05:32:20.039Z,20.63
2023-08-16T05:37:24.519Z,20.83
2023-08-16T05:42:29.889Z,21.03
2023-08-16T05:47:35.426Z,21.27
2023-08-16T05:52:39.337Z,21.47
2023-08-16T05:57:43.395Z,21.70
2023-08-16T06:02:49.778Z,21.94
2023-08-16T06:07:53.677Z,22.21
2023-08-16T06:12:57.809Z,22.46
2023-08-16T06:18:03.092Z,22.69
2023-08-16T06:23:07.158Z,22.92
2023-08-16T06:28:11.418Z,23.18
2023-08-16T06:33:16.990Z,23.46
2023-08-16T06:38:22.194Z,23.72
2023-08-16T06:43:26.245Z,23.95
2023-08-16T06:48:32.386Z,24.18
2023-08-16T06:53:37.163Z,24.43
2023-08-16T06:58:42.446Z,24.65
2023-08-16T07:03:49.486Z,24.86
2023-08-16T07:08:53.880Z,25.10
2023-08-16T07:13:58.261Z,25.36
2023-08-16T07:19:05.423Z,25.55
2023-08-16T07:24:09.558Z,25.70
2023-08-16T07:29:13.557Z,25.87
2023-08-16T07:34:19.183Z,26.03
2023-08-16T07:39:25.594Z,26.22
2023-08-16T07:44:29.556Z,26.41
2023-08-16T07:49:35.453Z,26.55
2023-08-16T07:54:39.538Z,26.72
2023-08-16T07:59:44.339Z,26.86
2023-08-16T08:04:50.905Z,27.03
2023-08-16T08:09:54.808Z,27.18
2023-08-16T08:14:59.603Z,27.34
2023-08-16T08:20:05.944Z,27.44
2023-08-16T08:25:10.416Z,27.67
2023-08-16T08:30:16.162Z,27.76
2023-08-16T08:35:21.661Z,27.90
2023-08-16T08:40:26.080Z,28.07
2023-08-16T08:45:30.309Z,28.23
2023-08-16T08:50:35.888Z,28.42
2023-08-16T08:55:42.188Z,28.59
2023-08-16T09:00:46.505Z,28.62
2023-08-16T09:05:53.313Z,28.73
2023-08-16T09:10:57.216Z,28.90
2023-08-16T09:16:02.076Z,29.05
2023-08-16T09:21:08.397Z,29.20
2023-08-16T09:26:16.522Z,29.34
2023-08-16T09:31:20.493Z,29.48
2023-08-16T09:36:30.150Z,29.68
2023-08-16T09:41:36.052Z,29.72
2023-08-16T10:07:14.491Z,30.19
2023-08-16T10:12:19.215Z,30.29
2023-08-16T10:17:23.797Z,30.34
2023-08-16T10:22:35.717Z,30.66
2023-08-16T10:27:41.099Z,30.72
2023-08-16T10:32:47.402Z,30.73
2023-08-16T10:37:54.988Z,30.79
2023-08-16T10:43:00.335Z,30.95
2023-08-16T10:48:12.401Z,31.15
2023-08-16T10:53:20.149Z,31.34
2023-08-16T10:58:24.624Z,31.55
2023-08-16T11:03:32.552Z,31.63
2023-08-16T11:08:41.060Z,31.76
2023-08-16T11:13:46.825Z,31.95
2023-08-16T11:19:02.974Z,31.92
2023-08-16T11:24:11.690Z,31.76
2023-08-16T11:29:16.112Z,32.20
2023-08-16T11:34:20.493Z,32.69
2023-08-16T11:39:28.747Z,32.78
2023-08-16T11:44:40.329Z,33.15
2023-08-16T11:49:44.578Z,33.22
2023-08-16T11:54:50.181Z,33.29
2023-08-16T11:59:57.876Z,33.73
2023-08-16T12:05:10.582Z,33.55
2023-08-16T12:10:25.477Z,33.94
2023-08-16T12:15:30.732Z,33.86
2023-08-16T12:20:37.841Z,34.33
2023-08-16T12:25:43.567Z,34.76
2023-08-16T12:30:47.547Z,34.39
2023-08-16T12:35:51.715Z,34.39
2023-08-16T12:40:57.852Z,34.38
2023-08-16T12:46:06.726Z,34.07
2023-08-16T12:51:16.649Z,33.79
2023-08-16T12:56:23.460Z,33.59
2023-08-16T13:01:41.744Z,33.55
2023-08-16T13:11:56.907Z,33.24
2023-08-16T13:17:05.455Z,32.73
2023-08-16T13:22:17.782Z,32.80
2023-08-16T13:27:40.948Z,33.43
2023-08-16T13:32:46.497Z,33.66
2023-08-16T13:37:58.338Z,33.34
2023-08-16T13:48:12.238Z,32.75
2023-08-16T13:53:16.389Z,32.79
2023-08-16T13:58:21.599Z,32.65
2023-08-16T14:03:25.832Z,32.71
2023-08-16T14:08:30.353Z,33.47
2023-08-16T14:13:35.584Z,33.45
2023-08-16T14:18:39.577Z,33.64
2023-08-16T14:23:43.502Z,33.59
2023-08-16T14:28:48.795Z,33.71
2023-08-16T14:33:52.767Z,33.92
2023-08-16T14:39:00.570Z,34.17
2023-08-16T14:44:06.781Z,33.92
2023-08-16T14:49:10.980Z,34.35
2023-08-16T14:54:15.168Z,34.52
2023-08-16T14:59:20.832Z,34.57
2023-08-16T15:04:27.158Z,34.30
2023-08-16T15:09:31.541Z,33.67
2023-08-16T15:14:37.044Z,33.74
2023-08-16T15:19:42.528Z,33.52
2023-08-16T15:24:46.835Z,33.41
2023-08-16T15:29:52.161Z,33.61
2023-08-16T15:34:56.545Z,33.81
2023-08-16T15:40:00.580Z,33.74
2023-08-16T15:45:06.995Z,33.15
2023-08-16T15:50:11.274Z,32.80
2023-08-16T15:55:15.331Z,32.39
2023-08-16T16:00:21.440Z,31.89
2023-08-16T16:05:25.317Z,31.73
2023-08-16T16:10:30.188Z,31.27
2023-08-16T16:15:35.616Z,31.02
2023-08-16T16:20:39.946Z,30.75
2023-08-16T16:25:43.867Z,30.55
2023-08-16T16:30:49.244Z,30.36
2023-08-16T16:35:53.167Z,30.14
2023-08-16T16:40:57.457Z,29.96
2023-08-16T16:46:03.573Z,29.60
2023-08-16T16:51:07.477Z,29.39
2023-08-16T16:56:11.530Z,29.35
2023-08-16T17:01:17.287Z,29.13
2023-08-16T17:06:21.744Z,28.93
2023-08-16T17:11:25.992Z,28.86
2023-08-16T17:16:31.278Z,28.69
2023-08-16T17:21:35.408Z,28.44
2023-08-16T17:26:39.501Z,28.16
2023-08-16T17:31:46.012Z,27.93
2023-08-16T17:36:50.409Z,27.91
2023-08-16T17:41:54.532Z,27.87
2023-08-16T17:47:00.151Z,27.78
2023-08-16T17:52:05.566Z,27.68
2023-08-16T17:57:09.436Z,27.55
2023-08-16T18:02:15.700Z,27.51
2023-08-16T18:07:21.492Z,27.46
2023-08-16T18:12:25.958Z,27.38
2023-08-16T18:17:32.009Z,27.32
2023-08-16T18:22:36.309Z,27.26
2023-08-16T18:27:40.527Z,27.14
2023-08-16T18:32:47.712Z,26.96
2023-08-16T18:37:51.735Z,26.74
2023-08-16T18:42:55.611Z,26.52
2023-08-16T18:48:01.102Z,26.31
2023-08-16T18:53:05.414Z,26.03
2023-08-16T18:58:09.336Z,25.89
2023-08-16T19:03:14.803Z,25.81
2023-08-16T19:08:20.347Z,25.66
2023-08-16T19:13:24.302Z,25.56
2023-08-16T19:18:29.791Z,25.39
2023-08-16T19:23:34.090Z,25.23
2023-08-16T19:28:38.124Z,25.22
2023-08-16T19:33:43.612Z,25.26
2023-08-16T19:38:47.514Z,25.22
2023-08-16T19:43:51.493Z,25.16
2023-08-16T19:48:56.991Z,25.11
2023-08-16T19:54:01.168Z,25.03
2023-08-16T19:59:05.494Z,25.12
2023-08-16T20:04:11.005Z,25.07
2023-08-16T20:09:15.360Z,25.07
2023-08-16T20:14:19.248Z,25.05
2023-08-16T20:19:24.493Z,25.00
2023-08-16T20:24:28.967Z,24.97
2023-08-16T20:29:33.291Z,24.88
2023-08-16T20:34:54.452Z,24.77
2023-08-16T20:39:59.060Z,24.68
2023-08-16T20:45:04.200Z,24.58
2023-08-16T20:50:11.157Z,24.57
2023-08-16T20:55:15.795Z,24.54
2023-08-16T21:00:19.861Z,24.45
2023-08-16T21:05:25.881Z,24.33
2023-08-16T21:10:42.202Z,24.29
2023-08-16T21:15:46.501Z,24.13
2023-08-16T21:20:52.184Z,24.05
2023-08-16T21:25:59.209Z,23.92
2023-08-16T21:31:03.162Z,23.89
2023-08-16T21:36:08.768Z,23.86
2023-08-16T21:41:13.127Z,23.98
2023-08-16T21:46:17.178Z,24.08
2023-08-16T21:51:22.612Z,24.13
2023-08-16T21:56:27.059Z,24.16
2023-08-16T22:01:31.036Z,24.16
2023-08-16T22:06:36.902Z,24.14
2023-08-16T22:11:41.033Z,24.14
2023-08-16T22:16:45.203Z,24.11
2023-08-16T22:21:50.668Z,24.07
2023-08-16T22:26:54.540Z,24.02
2023-08-16T22:31:58.517Z,23.97
2023-08-16T22:37:04.388Z,23.91
2023-08-16T22:42:08.809Z,23.87
2023-08-16T22:47:13.083Z,23.76
2023-08-16T22:52:18.525Z,23.73
2023-08-16T22:57:22.656Z,23.67
2023-08-16T23:02:27.208Z,23.61
2023-08-16T23:07:32.955Z,23.55
2023-08-16T23:12:37.130Z,23.50
2023-08-16T23:17:41.174Z,23.41
2023-08-16T23:22:46.461Z,23.35
2023-08-16T23:27:50.766Z,23.32
2023-08-16T23:32:55.054Z,23.25
2023-08-16T23:38:00.905Z,23.25
2023-08-16T23:43:05.088Z,23.22
2023-08-16T23:48:10.057Z,23.20
2023-08-16T23:53:15.468Z,23.13
2023-08-16T23:58:19.760Z,23.11
